Terminal Aerodrome Forecast
Issued by NWS

Home | Current Version | Previous Version | Text Only | Print | Product List | Glossary On
Versions: 1 2 3 4 5 6 7 8 9 10 11 12
000
FTUS45 KABQ 212300
TAFAEG
TAF
KAEG 212321Z 2200/2224 13016G26KT P6SM VCSH BKN060
     FM220400 12009KT P6SM VCSH BKN050
      TEMPO 2210/2214 OVC030
     FM221900 15007KT P6SM BKN050
     FM222000 17009KT P6SM VCTS BKN040CB=

USA.gov is the U.S. government's official web portal to all federal, state and local government web resources and services.